Time;durP1;ratioP1;P1;durP2;ratioP2;P2;SDS_P1;SDS_P2;PMS_P1;PMS_P2;Temp;Humidity;BMP_temperature;BMP_pressure;BME280_temperature;BME280_humidity;BME280_pressure;Samples;Min_cycle;Max_cycle;Signal;HPM_P1;HPM_P2
2024/04/12 00:02:26;;;;;;;2.10;1.50;;;16.40;99.90;;;;;;5491141;26;21056;-67
2024/04/12 00:04:53;;;;;;;2.40;2.20;;;16.40;99.90;;;;;;5490790;26;20443;-67
2024/04/12 00:07:22;;;;;;;3.93;2.27;;;16.40;99.90;;;;;;5490801;26;20446;-67
2024/04/12 00:09:52;;;;;;;2.73;1.90;;;16.40;99.90;;;;;;5491130;26;20495;-67
2024/04/12 00:12:26;;;;;;;4.63;1.97;;;16.40;99.90;;;;;;5491065;26;20560;-67
2024/04/12 00:14:51;;;;;;;2.37;1.93;;;16.40;99.90;;;;;;5491098;26;20443;-67
2024/04/12 00:17:20;;;;;;;2.50;1.67;;;16.40;99.90;;;;;;5491087;26;20443;-67
2024/04/12 00:19:45;;;;;;;1.80;1.70;;;16.40;99.90;;;;;;5490922;26;20210;-67
2024/04/12 00:22:14;;;;;;;1.90;1.60;;;16.30;99.90;;;;;;5490866;26;20502;-67
2024/04/12 00:24:39;;;;;;;9.13;2.70;;;16.30;99.90;;;;;;5490975;26;20214;-67
2024/04/12 00:27:08;;;;;;;2.63;2.20;;;16.30;99.90;;;;;;5490976;26;20889;-67
2024/04/12 00:29:36;;;;;;;3.30;1.70;;;16.30;99.90;;;;;;5490793;26;20533;-67
2024/04/12 00:32:13;;;;;;;4.07;1.60;;;16.30;99.90;;;;;;5490857;26;20522;-67
2024/04/12 00:34:47;;;;;;;1.67;1.57;;;16.30;99.90;;;;;;5490836;26;20552;-67
2024/04/12 00:37:16;;;;;;;1.60;1.50;;;16.30;99.90;;;;;;5491035;26;20463;-67
2024/04/12 00:39:47;;;;;;;3.50;1.43;;;16.30;99.90;;;;;;5490613;26;20574;-67
2024/04/12 00:42:23;;;;;;;1.80;1.70;;;16.30;99.90;;;;;;5490620;26;20503;-67
2024/04/12 00:44:54;;;;;;;2.33;1.70;;;16.30;99.90;;;;;;5490583;26;20843;-67
2024/04/12 00:47:23;;;;;;;2.50;1.70;;;16.40;99.90;;;;;;5490613;26;20958;-67
2024/04/12 00:49:52;;;;;;;2.73;1.80;;;16.30;99.90;;;;;;5490608;26;20514;-67
2024/04/12 00:52:22;;;;;;;2.23;1.50;;;16.40;99.90;;;;;;5490538;26;20966;-67
2024/04/12 00:54:55;;;;;;;2.83;1.30;;;16.40;99.90;;;;;;5490361;26;20511;-66
2024/04/12 00:57:21;;;;;;;2.43;1.87;;;16.40;99.90;;;;;;5490410;26;20961;-66
2024/04/12 00:59:51;;;;;;;3.93;1.80;;;16.30;99.90;;;;;;5490397;26;20490;-66
2024/04/12 01:02:21;;;;;;;3.73;1.83;;;16.30;99.90;;;;;;5490291;26;20439;-67
2024/04/12 01:04:49;;;;;;;1.83;1.50;;;16.30;99.90;;;;;;5490296;26;20950;-67
2024/04/12 01:07:18;;;;;;;1.77;1.67;;;16.30;99.90;;;;;;5490265;26;20552;-67
2024/04/12 01:09:46;;;;;;;1.67;1.47;;;16.30;99.90;;;;;;5490217;26;21089;-66
2024/04/12 01:12:16;;;;;;;3.10;1.40;;;16.30;99.90;;;;;;5490037;26;20486;-67
2024/04/12 01:14:46;;;;;;;2.50;1.70;;;16.30;99.90;;;;;;5490249;26;20495;-66
2024/04/12 01:17:11;;;;;;;1.87;1.50;;;16.30;99.90;;;;;;5488531;26;20444;-66
2024/04/12 01:19:42;;;;;;;2.33;1.30;;;16.30;99.90;;;;;;5490566;26;20491;-67
2024/04/12 01:22:08;;;;;;;1.47;1.37;;;16.30;99.90;;;;;;5490045;26;20210;-67
2024/04/12 01:24:42;;;;;;;1.77;1.40;;;16.30;99.90;;;;;;5490071;26;20451;-66
2024/04/12 01:27:07;;;;;;;3.03;1.60;;;16.30;99.90;;;;;;5490031;26;20443;-66
2024/04/12 01:29:35;;;;;;;2.43;1.60;;;16.30;99.90;;;;;;5489941;26;20502;-67
2024/04/12 01:32:04;;;;;;;3.50;1.70;;;16.30;99.90;;;;;;5490030;26;20252;-66
2024/04/12 01:34:32;;;;;;;1.93;1.60;;;16.30;99.90;;;;;;5489852;26;20831;-67
2024/04/12 01:37:03;;;;;;;2.60;1.77;;;16.30;99.90;;;;;;5489929;26;20495;-66
2024/04/12 01:39:34;;;;;;;2.43;1.37;;;16.20;99.90;;;;;;5489845;26;20558;-66
2024/04/12 01:42:04;;;;;;;3.07;1.80;;;16.20;99.90;;;;;;5489762;26;20816;-66
2024/04/12 01:44:32;;;;;;;2.03;1.70;;;16.20;99.90;;;;;;5489733;26;20593;-67
2024/04/12 01:46:58;;;;;;;1.80;1.67;;;16.20;99.90;;;;;;5489602;26;20675;-66
2024/04/12 01:49:26;;;;;;;1.97;1.50;;;16.20;99.90;;;;;;5489498;26;20450;-66
2024/04/12 01:51:55;;;;;;;1.60;1.50;;;16.20;99.90;;;;;;5489415;26;20538;-67
2024/04/12 01:54:23;;;;;;;2.40;2.03;;;16.20;99.90;;;;;;5489511;26;20820;-66
2024/04/12 01:56:50;;;;;;;2.50;1.50;;;16.20;99.90;;;;;;5489479;26;20450;-66
2024/04/12 01:59:23;;;;;;;1.67;1.57;;;16.00;99.90;;;;;;5489450;26;20443;-67
2024/04/12 02:01:48;;;;;;;2.33;1.80;;;16.10;99.90;;;;;;5489344;26;20489;-67
2024/04/12 02:04:18;;;;;;;4.70;2.23;;;16.10;99.90;;;;;;5489355;26;20443;-67
2024/04/12 02:06:44;;;;;;;4.67;1.83;;;16.10;99.90;;;;;;5489416;26;20210;-66
2024/04/12 02:09:14;;;;;;;1.73;1.63;;;16.10;99.90;;;;;;5489347;26;20447;-67
2024/04/12 02:11:41;;;;;;;2.00;1.60;;;16.10;99.90;;;;;;5489211;26;20874;-66
2024/04/12 02:14:10;;;;;;;1.77;1.50;;;16.10;99.90;;;;;;5489196;26;20454;-67
2024/04/12 02:16:39;;;;;;;1.97;1.60;;;16.10;99.90;;;;;;5489063;26;20563;-66
2024/04/12 02:19:10;;;;;;;3.43;1.90;;;16.20;99.90;;;;;;5489024;26;20507;-67
2024/04/12 02:21:38;;;;;;;1.40;1.30;;;16.20;99.90;;;;;;5489027;26;20564;-66
2024/04/12 02:24:08;;;;;;;2.27;1.63;;;16.10;99.90;;;;;;5489127;26;20445;-66
2024/04/12 02:26:35;;;;;;;2.30;1.80;;;15.90;99.90;;;;;;5489016;26;20581;-67
2024/04/12 02:29:04;;;;;;;3.80;1.90;;;15.90;99.90;;;;;;5490315;26;20488;-67
2024/04/12 02:31:31;;;;;;;2.80;1.53;;;15.90;99.90;;;;;;5492486;26;20439;-66
2024/04/12 02:34:02;;;;;;;1.80;1.53;;;16.00;99.90;;;;;;5492471;26;20446;-66
2024/04/12 02:36:30;;;;;;;1.73;1.30;;;16.00;99.90;;;;;;5492456;26;20503;-67
2024/04/12 02:39:04;;;;;;;3.00;1.53;;;16.00;99.90;;;;;;5492456;26;20447;-66
2024/04/12 02:41:37;;;;;;;2.10;1.90;;;16.00;99.90;;;;;;5492646;26;20550;-66
2024/04/12 02:44:06;;;;;;;1.70;1.60;;;15.90;99.90;;;;;;5492359;26;20533;-66
2024/04/12 02:46:32;;;;;;;3.90;2.43;;;15.90;99.90;;;;;;5492226;26;20915;-66
2024/04/12 02:49:05;;;;;;;3.43;1.63;;;15.90;99.90;;;;;;5492268;26;20447;-67
2024/04/12 02:51:32;;;;;;;2.00;1.90;;;15.90;99.90;;;;;;5492279;26;20300;-66
2024/04/12 02:54:00;;;;;;;2.90;1.90;;;15.90;99.90;;;;;;5492093;26;20443;-67
2024/04/12 02:56:26;;;;;;;2.87;1.80;;;15.90;99.90;;;;;;5492214;26;20222;-67
2024/04/12 02:58:54;;;;;;;1.93;1.67;;;15.90;99.90;;;;;;5492102;26;20986;-67
2024/04/12 03:01:21;;;;;;;2.67;1.80;;;15.90;99.90;;;;;;5492053;26;20213;-67
2024/04/12 03:03:54;;;;;;;2.77;2.17;;;15.90;99.90;;;;;;5492168;26;20451;-66
2024/04/12 03:06:24;;;;;;;3.53;1.70;;;15.80;99.90;;;;;;5492129;26;20509;-67
2024/04/12 03:08:53;;;;;;;3.00;1.63;;;15.80;99.90;;;;;;5491880;26;20450;-67
2024/04/12 03:11:21;;;;;;;3.53;1.93;;;15.80;99.90;;;;;;5492005;26;20446;-67
2024/04/12 03:13:51;;;;;;;1.70;1.60;;;15.80;99.90;;;;;;5492277;26;20442;-67
2024/04/12 03:16:18;;;;;;;2.20;2.00;;;15.80;99.90;;;;;;5491751;26;20760;-67
2024/04/12 03:18:47;;;;;;;4.63;1.77;;;15.80;99.90;;;;;;5491846;26;20552;-67
2024/04/12 03:21:14;;;;;;;3.37;1.90;;;15.80;99.90;;;;;;5491741;26;20504;-67
2024/04/12 03:23:46;;;;;;;1.70;1.60;;;15.80;99.90;;;;;;5491791;26;20454;-67
2024/04/12 03:26:12;;;;;;;2.13;1.93;;;15.80;99.90;;;;;;5491830;26;20491;-67
2024/04/12 03:28:40;;;;;;;3.17;1.40;;;15.80;99.90;;;;;;5491666;26;20586;-67
2024/04/12 03:31:07;;;;;;;1.70;1.60;;;15.90;99.90;;;;;;5491640;26;20434;-67
2024/04/12 03:33:42;;;;;;;2.07;1.70;;;15.80;99.90;;;;;;5491628;26;20442;-67
2024/04/12 03:36:26;;;;;;;2.03;1.93;;;15.80;99.90;;;;;;5491615;26;20446;-67
2024/04/12 03:39:24;;;;;;;4.67;1.80;;;15.80;99.90;;;;;;5491639;26;20447;-68
2024/04/12 03:41:44;;;;;;;4.63;2.30;;;15.70;99.90;;;;;;5490112;26;20439;-67
2024/04/12 03:44:13;;;;;;;4.20;1.80;;;15.70;99.90;;;;;;5491542;26;20960;-67
2024/04/12 03:46:40;;;;;;;2.53;1.83;;;15.70;99.90;;;;;;5491462;26;20443;-67
2024/04/12 03:49:11;;;;;;;5.50;1.90;;;15.70;99.90;;;;;;5491346;26;20506;-67
2024/04/12 03:51:42;;;;;;;2.10;1.93;;;15.70;99.90;;;;;;5491450;26;20486;-67
2024/04/12 03:54:17;;;;;;;2.43;2.10;;;15.70;99.90;;;;;;5491321;26;20557;-67
2024/04/12 03:56:44;;;;;;;2.47;2.27;;;15.70;99.90;;;;;;5491310;26;20547;-67
2024/04/12 03:59:12;;;;;;;2.83;2.10;;;15.70;99.90;;;;;;5491215;26;20450;-67
2024/04/12 04:01:44;;;;;;;2.27;1.70;;;15.70;99.90;;;;;;5491103;26;20447;-67
2024/04/12 04:04:17;;;;;;;2.33;2.10;;;15.70;99.90;;;;;;5491241;26;20455;-67
2024/04/12 04:06:46;;;;;;;2.90;1.87;;;15.70;99.90;;;;;;5491072;26;20447;-67
2024/04/12 04:09:14;;;;;;;3.20;2.20;;;15.70;99.90;;;;;;5491116;26;20447;-66
2024/04/12 04:11:45;;;;;;;2.40;1.80;;;15.70;99.90;;;;;;5491020;26;20447;-67
2024/04/12 04:14:13;;;;;;;3.07;2.20;;;15.70;99.90;;;;;;5491070;26;20451;-66
2024/04/12 04:16:42;;;;;;;5.00;2.00;;;15.70;99.90;;;;;;5491087;26;20458;-66
2024/04/12 04:19:12;;;;;;;3.23;1.90;;;15.70;99.90;;;;;;5491037;26;20443;-67
2024/04/12 04:21:41;;;;;;;1.97;1.87;;;15.70;99.90;;;;;;5490913;26;20835;-66
2024/04/12 04:24:08;;;;;;;6.00;1.87;;;15.70;99.90;;;;;;5490859;26;20544;-66
2024/04/12 04:26:40;;;;;;;2.17;1.97;;;15.70;99.90;;;;;;5490756;26;20443;-66
2024/04/12 04:29:09;;;;;;;5.00;2.10;;;15.70;99.90;;;;;;5490786;26;20447;-67
2024/04/12 04:31:47;;;;;;;2.43;2.23;;;15.70;99.90;;;;;;5490769;26;21071;-66
2024/04/12 04:34:13;;;;;;;4.30;2.13;;;15.80;99.90;;;;;;5490621;26;20435;-66
2024/04/12 04:36:41;;;;;;;3.87;2.30;;;15.60;99.90;;;;;;5490635;26;20451;-66
2024/04/12 04:39:06;;;;;;;2.87;1.93;;;15.60;99.90;;;;;;5490674;26;20451;-67
2024/04/12 04:41:35;;;;;;;4.53;1.93;;;15.60;99.90;;;;;;5490715;26;20890;-67
2024/04/12 04:44:06;;;;;;;2.37;1.90;;;15.60;99.90;;;;;;5490473;26;20214;-67
2024/04/12 04:46:34;;;;;;;2.27;1.93;;;15.60;99.90;;;;;;5490475;26;20565;-67
2024/04/12 04:49:00;;;;;;;3.67;2.37;;;15.60;99.90;;;;;;5490445;26;20459;-67
2024/04/12 04:51:29;;;;;;;6.67;2.47;;;15.60;99.90;;;;;;5490123;26;20502;-66
2024/04/12 04:53:55;;;;;;;2.50;2.23;;;15.60;99.90;;;;;;5490337;26;20207;-66
2024/04/12 04:56:30;;;;;;;5.60;2.33;;;15.60;99.90;;;;;;5490272;26;20514;-67
2024/04/12 04:58:56;;;;;;;2.47;2.20;;;15.60;99.90;;;;;;5490242;26;20237;-67
2024/04/12 05:01:27;;;;;;;2.80;2.33;;;15.60;99.90;;;;;;5490280;26;20831;-66
2024/04/12 05:03:52;;;;;;;2.33;2.00;;;15.60;99.90;;;;;;5490311;26;20443;-66
2024/04/12 05:06:24;;;;;;;2.63;1.90;;;15.60;99.90;;;;;;5490291;26;20507;-67
2024/04/12 05:08:52;;;;;;;3.20;2.07;;;15.60;99.90;;;;;;5490129;26;20269;-67
2024/04/12 05:11:20;;;;;;;5.60;2.20;;;15.70;99.90;;;;;;5489789;26;20499;-66
2024/04/12 05:13:49;;;;;;;2.10;1.90;;;15.60;99.90;;;;;;5489990;26;20463;-67
2024/04/12 05:16:19;;;;;;;3.30;2.00;;;15.70;99.90;;;;;;5489880;26;20440;-66
2024/04/12 05:18:48;;;;;;;2.73;2.40;;;15.70;99.90;;;;;;5489909;26;20567;-66
2024/04/12 05:21:16;;;;;;;3.00;2.30;;;15.70;99.90;;;;;;5489888;26;20556;-66
2024/04/12 05:23:42;;;;;;;7.90;2.77;;;15.70;99.90;;;;;;5490304;26;20491;-67
2024/04/12 05:26:10;;;;;;;5.73;2.43;;;15.60;99.90;;;;;;5489820;26;20451;-66
2024/04/12 05:28:36;;;;;;;4.03;2.53;;;15.60;99.90;;;;;;5489640;26;20315;-67
2024/04/12 05:31:11;;;;;;;6.27;2.83;;;15.60;99.90;;;;;;5489701;26;20962;-67
2024/04/12 05:33:37;;;;;;;2.27;2.17;;;15.60;99.90;;;;;;5489633;26;20236;-67
2024/04/12 05:36:09;;;;;;;2.63;2.20;;;15.70;99.90;;;;;;5489581;26;20443;-67
2024/04/12 05:38:35;;;;;;;4.20;2.77;;;15.70;99.90;;;;;;5489457;26;20218;-67
2024/04/12 05:41:04;;;;;;;6.77;3.20;;;15.70;99.90;;;;;;5489798;26;20455;-67
2024/04/12 05:43:30;;;;;;;5.00;3.17;;;15.70;99.90;;;;;;5489348;26;20210;-67
2024/04/12 05:46:00;;;;;;;3.90;2.80;;;15.70;99.90;;;;;;5489624;26;20978;-67
2024/04/12 05:48:27;;;;;;;3.73;2.93;;;15.70;99.90;;;;;;5489457;26;20560;-67
2024/04/12 05:50:57;;;;;;;5.30;3.13;;;15.80;99.90;;;;;;5489412;26;20503;-67
2024/04/12 05:53:29;;;;;;;4.40;3.13;;;15.80;99.90;;;;;;5489602;26;20893;-67
2024/04/12 05:58:40;;;;;;;5.10;3.03;;;15.90;99.90;;;;;;5488859;26;20491;-67
2024/04/12 06:01:07;;;;;;;3.10;2.80;;;15.90;99.90;;;;;;5489378;26;20439;-67
2024/04/12 06:03:42;;;;;;;5.43;3.87;;;15.80;99.90;;;;;;5487988;26;20836;-67
2024/04/12 06:06:08;;;;;;;3.60;3.30;;;15.80;99.90;;;;;;5488587;26;20484;-67
2024/04/12 06:08:38;;;;;;;4.17;2.80;;;15.80;99.90;;;;;;5488964;26;20451;-67
2024/04/12 06:11:08;;;;;;;4.00;3.60;;;15.80;99.90;;;;;;5489117;26;20488;-67
2024/04/12 06:13:38;;;;;;;5.30;3.00;;;15.90;99.90;;;;;;5489248;26;20890;-67
2024/04/12 06:16:03;;;;;;;3.03;2.23;;;15.90;99.90;;;;;;5488869;26;20442;-67
2024/04/12 06:18:32;;;;;;;3.43;2.90;;;15.90;99.90;;;;;;5489034;26;20861;-67
2024/04/12 06:20:58;;;;;;;3.90;3.50;;;15.90;99.90;;;;;;5488880;26;20553;-67
2024/04/12 06:23:26;;;;;;;4.50;3.10;;;16.00;99.90;;;;;;5488889;26;20555;-67
2024/04/12 06:25:58;;;;;;;6.10;3.40;;;16.00;99.90;;;;;;5488750;26;20214;-68
2024/04/12 06:28:27;;;;;;;6.80;3.67;;;16.00;99.90;;;;;;5488783;26;20451;-67
2024/04/12 06:30:56;;;;;;;3.93;2.90;;;16.00;99.90;;;;;;5488731;26;20462;-68
2024/04/12 06:33:24;;;;;;;5.10;3.07;;;16.10;99.90;;;;;;5488705;26;20775;-68
2024/04/12 06:35:52;;;;;;;4.27;3.10;;;16.10;99.90;;;;;;5488684;26;20565;-67
2024/04/12 06:38:22;;;;;;;4.40;2.80;;;16.10;99.90;;;;;;5488614;26;20530;-67
2024/04/12 06:40:52;;;;;;;5.93;3.43;;;16.10;99.90;;;;;;5488598;26;20443;-67
2024/04/12 06:43:23;;;;;;;4.20;3.00;;;16.00;99.90;;;;;;5488453;26;20557;-67
2024/04/12 06:45:56;;;;;;;6.77;3.60;;;16.10;99.90;;;;;;5488302;26;20458;-67
2024/04/12 06:48:26;;;;;;;4.23;3.60;;;16.10;99.90;;;;;;5488419;26;20458;-67
2024/04/12 06:50:52;;;;;;;3.37;3.07;;;16.20;99.90;;;;;;5488043;26;20459;-67
2024/04/12 06:53:21;;;;;;;4.43;2.60;;;16.20;99.90;;;;;;5488167;26;20443;-67
2024/04/12 06:55:47;;;;;;;3.30;2.73;;;16.20;99.90;;;;;;5486606;26;20478;-67
2024/04/12 06:58:17;;;;;;;3.63;3.07;;;16.20;99.90;;;;;;5487147;26;21033;-67
2024/04/12 07:00:46;;;;;;;3.37;3.00;;;16.30;99.90;;;;;;5486972;26;20222;-67
2024/04/12 07:03:16;;;;;;;3.60;3.17;;;16.30;99.90;;;;;;5486111;26;20536;-67
2024/04/12 07:05:47;;;;;;;3.93;3.30;;;16.40;99.90;;;;;;5487709;26;20507;-67
2024/04/12 07:08:16;;;;;;;9.30;4.20;;;16.30;99.90;;;;;;5487956;26;20447;-67
2024/04/12 07:10:42;;;;;;;4.77;4.33;;;16.30;99.90;;;;;;5487921;26;20450;-67
2024/04/12 07:13:10;;;;;;;6.57;4.40;;;16.30;99.90;;;;;;5487686;26;20578;-67
2024/04/12 07:15:35;;;;;;;4.70;4.30;;;16.40;99.90;;;;;;5488113;26;20287;-67
2024/04/12 07:18:11;;;;;;;4.30;3.90;;;16.20;99.90;;;;;;5491567;26;20455;-67
2024/04/12 07:20:38;;;;;;;3.80;3.40;;;16.30;99.90;;;;;;5491565;26;20450;-67
2024/04/12 07:23:08;;;;;;;3.70;3.30;;;16.30;99.90;;;;;;5491499;26;20498;-67
2024/04/12 07:25:34;;;;;;;3.87;3.57;;;16.30;99.90;;;;;;5491552;26;20499;-68
2024/04/12 07:28:06;;;;;;;4.40;4.00;;;16.30;99.90;;;;;;5491162;26;20450;-67
2024/04/12 07:30:32;;;;;;;4.03;3.47;;;16.30;99.90;;;;;;5491366;26;20248;-67
2024/04/12 07:33:05;;;;;;;7.87;4.37;;;16.30;99.90;;;;;;5491340;26;20446;-67
2024/04/12 07:35:36;;;;;;;6.13;3.60;;;16.40;99.90;;;;;;5491411;26;20214;-67
2024/04/12 07:38:02;;;;;;;5.53;4.20;;;16.50;99.90;;;;;;5491607;26;20895;-67
2024/04/12 07:40:34;;;;;;;5.37;4.20;;;16.50;99.90;;;;;;5491293;26;20458;-67
2024/04/12 07:43:08;;;;;;;6.87;4.53;;;16.50;99.90;;;;;;5491301;26;20248;-67
2024/04/12 07:45:37;;;;;;;4.80;4.13;;;16.50;99.90;;;;;;5491238;26;20502;-67
2024/04/12 07:48:11;;;;;;;8.37;4.10;;;16.60;99.90;;;;;;5491067;26;20523;-67
2024/04/12 07:50:42;;;;;;;6.00;4.10;;;16.60;99.90;;;;;;5491250;26;20443;-68
2024/04/12 07:53:21;;;;;;;8.93;5.67;;;16.70;99.90;;;;;;5491213;26;20781;-68
2024/04/12 07:55:58;;;;;;;5.53;4.00;;;16.80;99.90;;;;;;5491435;26;20779;-67
2024/04/12 07:58:26;;;;;;;5.30;4.80;;;16.90;99.90;;;;;;5491310;26;20495;-68
2024/04/12 08:01:09;;;;;;;5.10;4.70;;;17.10;99.90;;;;;;5491137;26;20455;-68
2024/04/12 08:03:36;;;;;;;4.30;3.90;;;17.20;99.90;;;;;;5491148;26;20495;-68
2024/04/12 08:06:18;;;;;;;4.70;3.87;;;17.20;99.90;;;;;;5491037;26;20446;-67
2024/04/12 08:08:44;;;;;;;4.80;4.50;;;17.30;99.90;;;;;;5491090;26;20557;-67
2024/04/12 08:11:31;;;;;;;4.33;3.50;;;17.40;99.90;;;;;;5490975;26;20849;-67
2024/04/12 08:14:05;;;;;;;7.73;4.73;;;17.50;99.90;;;;;;5490884;26;20451;-68
2024/04/12 08:16:39;;;;;;;5.40;4.70;;;17.40;99.90;;;;;;5490867;26;20446;-68
2024/04/12 08:19:12;;;;;;;5.20;3.90;;;17.50;99.90;;;;;;5490839;26;20494;-67
2024/04/12 08:21:43;;;;;;;4.53;4.10;;;17.50;99.90;;;;;;5491168;26;20778;-68
2024/04/12 08:24:10;;;;;;;7.57;5.47;;;17.50;99.90;;;;;;5490649;26;20447;-69
2024/04/12 08:26:45;;;;;;;6.17;5.37;;;17.50;99.90;;;;;;5490043;26;20526;-67
2024/04/12 08:29:20;;;;;;;7.43;5.30;;;17.60;99.90;;;;;;5490686;26;20499;-67
2024/04/12 08:31:59;;;;;;;6.83;5.40;;;17.60;99.90;;;;;;5490628;26;20497;-67
2024/04/12 08:34:25;;;;;;;7.17;5.63;;;17.70;99.90;;;;;;5490955;26;20503;-67
2024/04/12 08:36:56;;;;;;;7.23;5.20;;;17.80;99.90;;;;;;5490615;26;20522;-67
2024/04/12 08:39:29;;;;;;;6.03;5.43;;;18.00;99.90;;;;;;5490504;26;20537;-67
2024/04/12 08:42:04;;;;;;;6.50;5.90;;;17.90;99.90;;;;;;5490266;26;20439;-67
2024/04/12 08:44:30;;;;;;;7.40;6.70;;;17.90;99.90;;;;;;5490469;26;20834;-68
2024/04/12 08:47:16;;;;;;;8.77;5.80;;;17.80;99.90;;;;;;5490388;26;20498;-67
2024/04/12 08:49:45;;;;;;;7.03;5.33;;;17.70;99.90;;;;;;5490417;26;20485;-68
2024/04/12 08:52:24;;;;;;;5.90;5.07;;;17.80;99.90;;;;;;5490217;26;20447;-67
2024/04/12 08:54:54;;;;;;;6.40;5.43;;;17.80;99.90;;;;;;5490163;26;20450;-66
2024/04/12 08:57:23;;;;;;;6.80;6.03;;;17.80;99.90;;;;;;5490170;26;20565;-66
2024/04/12 08:59:49;;;;;;;7.80;6.13;;;18.00;99.90;;;;;;5490237;26;20875;-66
2024/04/12 09:02:22;;;;;;;7.93;7.17;;;17.90;99.90;;;;;;5490223;26;20491;-66
2024/04/12 09:04:47;;;;;;;7.23;6.23;;;17.90;99.90;;;;;;5490121;26;20539;-67
2024/04/12 09:07:20;;;;;;;7.67;6.87;;;17.80;99.90;;;;;;5490165;26;20502;-67
2024/04/12 09:09:52;;;;;;;8.40;7.50;;;17.80;99.90;;;;;;5490184;26;20241;-67
2024/04/12 09:12:24;;;;;;;7.93;7.13;;;17.80;99.90;;;;;;5490192;26;20443;-68
2024/04/12 09:14:50;;;;;;;8.23;6.47;;;17.80;99.90;;;;;;5490155;26;20443;-67
2024/04/12 09:17:28;;;;;;;7.83;7.00;;;18.00;99.90;;;;;;5489912;26;21030;-68
2024/04/12 09:19:54;;;;;;;8.63;6.80;;;18.20;99.90;;;;;;5489823;26;20447;-67
2024/04/12 09:22:27;;;;;;;9.40;8.40;;;18.30;99.90;;;;;;5489628;26;20548;-68
2024/04/12 09:24:56;;;;;;;7.67;6.83;;;18.40;99.90;;;;;;5489627;26;20213;-69
2024/04/12 09:27:33;;;;;;;8.60;7.57;;;18.60;99.90;;;;;;5489730;26;20447;-68
2024/04/12 09:32:50;;;;;;;10.50;9.03;;;18.80;99.90;;;;;;5489816;26;20499;-67
2024/04/12 09:33:00;;;;;;;11.53;8.70;;;19.00;99.90;;;;;;5489581;26;21079;-66
2024/04/12 09:35:34;;;;;;;8.90;7.27;;;19.00;99.90;;;;;;5489452;26;20446;-66
2024/04/12 09:38:05;;;;;;;8.97;8.07;;;19.20;99.90;;;;;;5488219;26;20507;-66
2024/04/12 09:40:40;;;;;;;7.97;7.17;;;19.10;99.90;;;;;;5489576;26;20783;-66
2024/04/12 09:43:25;;;;;;;8.53;7.70;;;19.10;99.90;;;;;;5489287;26;20498;-66
2024/04/12 09:46:05;;;;;;;12.43;8.23;;;19.00;99.90;;;;;;5489542;26;20443;-66
2024/04/12 10:38:47;;;;;;;9.60;6.50;;;19.10;99.90;;;;;;5491314;26;20471;-66
2024/04/12 10:41:16;;;;;;;6.70;5.80;;;19.20;99.90;;;;;;5488366;26;20443;-67
2024/04/12 10:43:47;;;;;;;8.20;7.03;;;19.20;99.90;;;;;;5488111;26;20836;-66
2024/04/12 10:46:15;;;;;;;6.70;6.00;;;19.10;99.90;;;;;;5488638;26;20495;-66
2024/04/12 10:48:42;;;;;;;8.60;7.60;;;19.00;99.90;;;;;;5487532;26;20455;-66
2024/04/12 10:51:14;;;;;;;8.93;6.43;;;19.00;99.90;;;;;;5488534;26;21469;-66
2024/04/12 10:53:43;;;;;;;9.57;7.77;;;19.10;99.90;;;;;;5489249;26;20602;-66
2024/04/12 10:56:11;;;;;;;7.50;6.80;;;19.10;99.90;;;;;;5489084;26;20515;-66
2024/04/12 10:58:47;;;;;;;7.00;6.00;;;19.20;99.90;;;;;;5489000;26;21068;-66
2024/04/12 11:01:16;;;;;;;6.33;5.83;;;19.30;99.90;;;;;;5489709;26;20810;-66
2024/04/12 11:03:56;;;;;;;6.97;6.27;;;19.40;99.90;;;;;;5489245;26;20451;-66
2024/04/12 11:06:30;;;;;;;9.10;6.50;;;19.50;99.90;;;;;;5491855;26;20582;-66
2024/04/12 11:08:59;;;;;;;33.73;20.13;;;19.50;99.90;;;;;;5491823;26;20446;-66
2024/04/12 11:11:31;;;;;;;7.50;6.80;;;19.50;99.90;;;;;;5491615;26;20491;-66
2024/04/12 11:14:00;;;;;;;6.80;6.20;;;19.50;99.90;;;;;;5491731;26;20969;-66
2024/04/12 11:33:04;;;;;;;8.50;6.50;;;19.50;99.90;;;;;;5494505;26;20482;-66
2024/04/12 11:35:34;;;;;;;6.70;5.80;;;19.70;99.90;;;;;;5491438;26;20905;-66
2024/04/12 11:38:04;;;;;;;10.70;6.60;;;20.00;99.90;;;;;;5491458;26;20447;-66
2024/04/12 11:40:32;;;;;;;6.80;6.10;;;20.20;99.90;;;;;;5491453;26;20442;-66
2024/04/12 11:43:00;;;;;;;7.07;6.37;;;20.30;99.90;;;;;;5491138;26;21025;-66
2024/04/12 11:45:30;;;;;;;6.57;6.00;;;20.40;99.90;;;;;;5491317;26;20490;-66
2024/04/12 11:48:02;;;;;;;6.63;6.03;;;20.40;99.90;;;;;;5491106;26;20455;-66
2024/04/12 11:50:28;;;;;;;7.00;5.97;;;20.50;99.90;;;;;;5491121;26;20458;-66
2024/04/12 11:52:56;;;;;;;7.77;6.97;;;20.70;99.90;;;;;;5491313;26;20443;-66
2024/04/12 11:55:24;;;;;;;6.50;5.80;;;20.80;99.90;;;;;;5491184;26;20265;-66
2024/04/12 11:57:52;;;;;;;18.07;7.77;;;20.90;99.90;;;;;;5491016;26;20451;-66
2024/04/12 12:00:20;;;;;;;7.00;5.50;;;20.90;99.90;;;;;;5490767;26;20495;-66
2024/04/12 12:02:52;;;;;;;9.27;4.93;;;20.90;99.90;;;;;;5490231;26;20442;-66
2024/04/12 12:05:21;;;;;;;9.07;5.70;;;20.90;99.90;;;;;;5491104;26;20557;-66
2024/04/12 12:07:49;;;;;;;5.60;4.80;;;21.00;99.90;;;;;;5491097;26;20906;-66
2024/04/12 12:10:15;;;;;;;5.67;5.17;;;21.00;99.90;;;;;;5490952;26;20443;-67
2024/04/12 12:12:44;;;;;;;10.33;5.33;;;21.10;99.90;;;;;;5490750;26;20503;-66
2024/04/12 12:15:09;;;;;;;9.30;5.47;;;21.20;99.90;;;;;;5490846;26;20206;-66
2024/04/12 12:17:37;;;;;;;6.57;5.80;;;21.30;99.90;;;;;;5490766;26;20871;-66
2024/04/12 12:20:04;;;;;;;5.43;5.03;;;21.50;99.90;;;;;;5490780;26;20210;-66
2024/04/12 12:22:35;;;;;;;5.83;5.23;;;21.60;99.90;;;;;;5490683;26;20439;-66
2024/04/12 12:25:01;;;;;;;4.70;4.20;;;21.60;99.90;;;;;;5490694;26;20475;-66
2024/04/12 12:27:29;;;;;;;5.17;4.77;;;21.70;99.90;;;;;;5490657;26;20458;-66
2024/04/12 12:29:54;;;;;;;5.77;4.97;;;21.50;99.90;;;;;;5490813;26;20238;-66
2024/04/12 12:32:25;;;;;;;5.37;4.43;;;21.50;99.90;;;;;;5490666;26;20550;-66
2024/04/12 12:34:51;;;;;;;9.80;5.00;;;21.40;99.90;;;;;;5490830;26;20240;-66
2024/04/12 12:37:19;;;;;;;8.73;4.70;;;21.70;99.90;;;;;;5490396;26;20958;-66
2024/04/12 12:39:47;;;;;;;22.17;9.70;;;21.80;99.90;;;;;;5490531;26;20447;-66
2024/04/12 12:42:16;;;;;;;6.13;4.70;;;22.00;99.90;;;;;;5490628;26;20499;-67
2024/04/12 12:44:43;;;;;;;5.43;4.93;;;22.30;99.90;;;;;;5490215;26;20447;-67
2024/04/12 12:47:12;;;;;;;30.87;6.57;;;22.50;99.90;;;;;;5490421;26;20499;-66
2024/04/12 12:49:40;;;;;;;7.30;4.97;;;22.60;99.90;;;;;;5490314;26;20828;-66
2024/04/12 12:52:11;;;;;;;18.23;6.40;;;22.40;99.90;;;;;;5490371;26;20454;-67
2024/04/12 12:54:40;;;;;;;13.63;5.57;;;22.20;99.90;;;;;;5490313;26;20511;-67
2024/04/12 12:57:10;;;;;;;8.77;6.40;;;22.30;99.90;;;;;;5490215;26;20494;-66
2024/04/12 12:59:42;;;;;;;5.60;4.77;;;22.30;99.90;;;;;;5490254;26;20585;-67
2024/04/12 13:02:13;;;;;;;4.70;4.10;;;22.20;99.90;;;;;;5490144;26;20462;-67
2024/04/12 13:04:42;;;;;;;6.23;4.70;;;22.30;99.90;;;;;;5490197;26;20852;-67
2024/04/12 13:07:08;;;;;;;4.97;4.30;;;22.30;99.90;;;;;;5490258;26;20458;-67
2024/04/12 13:09:37;;;;;;;4.70;4.20;;;22.20;99.90;;;;;;5490279;26;20501;-67
2024/04/12 13:12:04;;;;;;;3.93;3.63;;;22.20;99.90;;;;;;5490189;26;20573;-67
2024/04/12 13:14:37;;;;;;;3.87;3.57;;;22.10;99.90;;;;;;5490091;26;20560;-67
2024/04/12 13:17:06;;;;;;;7.50;4.50;;;22.20;99.90;;;;;;5490193;26;20443;-66
2024/04/12 13:19:34;;;;;;;6.47;4.60;;;22.10;99.90;;;;;;5489993;26;20768;-67
2024/04/12 13:22:01;;;;;;;5.13;3.97;;;22.10;99.90;;;;;;5489902;26;20564;-67
2024/04/12 13:24:29;;;;;;;3.30;3.10;;;22.20;99.90;;;;;;5489829;26;20462;-67
2024/04/12 13:26:55;;;;;;;5.50;3.60;;;22.10;99.90;;;;;;5489572;26;20222;-67
2024/04/12 13:29:26;;;;;;;3.13;2.83;;;22.00;99.90;;;;;;5489710;26;20997;-67
2024/04/12 13:31:57;;;;;;;2.80;2.57;;;22.10;99.90;;;;;;5489782;26;20206;-67
2024/04/12 13:34:25;;;;;;;4.40;2.47;;;21.90;99.90;;;;;;5489734;26;20452;-67
2024/04/12 13:36:52;;;;;;;2.83;2.63;;;22.00;99.90;;;;;;5489707;26;20458;-67
2024/04/12 13:39:21;;;;;;;3.07;2.87;;;22.00;99.90;;;;;;5489333;26;20547;-67
2024/04/12 13:41:47;;;;;;;2.80;2.60;;;22.10;99.90;;;;;;5489599;26;20443;-67
2024/04/12 13:44:25;;;;;;;3.03;2.43;;;22.20;99.90;;;;;;5489414;26;20504;-67
2024/04/12 13:52:26;;;;;;;2.70;2.17;;;22.20;99.90;;;;;;5492319;26;21013;-67
2024/04/12 13:54:56;;;;;;;4.77;2.23;;;22.20;99.90;;;;;;5489110;26;20509;-67
2024/04/12 13:57:24;;;;;;;3.17;2.20;;;22.20;99.90;;;;;;5489470;26;20439;-67
2024/04/12 13:59:54;;;;;;;8.50;2.20;;;22.20;99.90;;;;;;5489346;26;20443;-67
2024/04/12 14:02:26;;;;;;;2.93;2.43;;;22.20;99.90;;;;;;5489309;26;20447;-67
2024/04/12 14:04:55;;;;;;;2.30;2.10;;;22.20;99.90;;;;;;5489250;26;20790;-66
2024/04/12 14:07:24;;;;;;;4.40;2.03;;;22.10;99.90;;;;;;5489143;26;20443;-67
2024/04/12 14:09:49;;;;;;;2.13;1.93;;;22.00;99.90;;;;;;5489120;26;20503;-68
2024/04/12 14:12:18;;;;;;;2.73;2.47;;;21.90;99.90;;;;;;5489077;26;20443;-67
2024/04/12 14:14:43;;;;;;;3.93;1.97;;;22.00;99.90;;;;;;5488910;26;20214;-67